createdAt,value
2023-02-04T00:00:11.300Z,4.29
2023-02-04T00:01:15.839Z,4.28
2023-02-04T00:02:17.751Z,4.31
2023-02-04T00:03:22.285Z,4.27
2023-02-04T00:04:24.200Z,4.25
2023-02-04T00:05:28.839Z,4.25
2023-02-04T00:06:30.936Z,4.27
2023-02-04T00:07:35.450Z,4.28
2023-02-04T00:08:37.799Z,4.27
2023-02-04T00:09:42.349Z,4.25
2023-02-04T00:10:44.315Z,4.24
2023-02-04T00:11:48.919Z,4.25
2023-02-04T00:12:50.882Z,4.23
2023-02-04T00:13:58.043Z,4.26
2023-02-04T00:15:00.270Z,4.21
2023-02-04T00:16:04.984Z,4.24
2023-02-04T00:17:08.157Z,4.21
2023-02-04T00:18:13.679Z,4.23
2023-02-04T00:19:17.155Z,4.24
2023-02-04T00:20:22.359Z,4.24
2023-02-04T00:21:24.352Z,4.24
2023-02-04T00:22:29.438Z,4.24
2023-02-04T00:23:31.452Z,4.24
2023-02-04T00:24:36.210Z,4.23
2023-02-04T00:25:38.136Z,4.26
2023-02-04T00:26:42.652Z,4.25
2023-02-04T00:27:44.642Z,4.25
2023-02-04T00:28:49.171Z,4.24
2023-02-04T00:29:53.755Z,4.25
2023-02-04T00:30:58.272Z,4.26
2023-02-04T00:32:00.452Z,4.28
2023-02-04T00:33:05.114Z,4.28
2023-02-04T00:34:07.053Z,4.31
2023-02-04T00:35:12.060Z,4.30
2023-02-04T00:36:14.130Z,4.28
2023-02-04T00:37:18.711Z,4.25
2023-02-04T00:38:20.668Z,4.25
2023-02-04T00:39:25.275Z,4.24
2023-02-04T00:40:27.223Z,4.23
2023-02-04T00:41:31.764Z,4.23
2023-02-04T00:42:33.759Z,4.24
2023-02-04T00:43:38.349Z,4.24
2023-02-04T00:44:40.324Z,4.23
2023-02-04T00:45:47.889Z,4.20
2023-02-04T00:46:49.885Z,4.23
2023-02-04T00:47:54.547Z,4.18
2023-02-04T00:48:56.457Z,4.22
2023-02-04T00:50:00.983Z,4.18
2023-02-04T00:51:02.960Z,4.16
2023-02-04T00:52:08.037Z,4.17
2023-02-04T00:53:10.180Z,4.19
2023-02-04T00:54:16.106Z,4.19
2023-02-04T00:55:18.630Z,4.22
2023-02-04T00:56:23.144Z,4.24
2023-02-04T00:57:25.186Z,4.20
2023-02-04T00:58:29.793Z,4.22
2023-02-04T00:59:31.699Z,4.18
2023-02-04T01:00:36.220Z,4.17
2023-02-04T01:01:40.768Z,4.19
2023-02-04T01:02:45.384Z,4.20
2023-02-04T01:03:47.354Z,4.19
2023-02-04T01:04:51.897Z,4.17
2023-02-04T01:05:53.804Z,4.19
2023-02-04T01:06:58.432Z,4.15
2023-02-04T01:08:00.379Z,4.16
2023-02-04T01:09:05.238Z,4.16
2023-02-04T01:10:07.329Z,4.19
2023-02-04T01:11:11.867Z,4.18
2023-02-04T01:12:13.802Z,4.16
2023-02-04T01:13:18.543Z,4.14
2023-02-04T01:14:20.881Z,4.16
2023-02-04T01:15:25.510Z,4.16
2023-02-04T01:16:27.685Z,4.13
2023-02-04T01:17:34.876Z,4.16
2023-02-04T01:18:36.846Z,4.13
2023-02-04T01:19:41.344Z,4.12
2023-02-04T01:20:43.306Z,4.12
2023-02-04T01:21:47.938Z,4.12
2023-02-04T01:22:49.921Z,4.12
2023-02-04T01:23:55.200Z,4.11
2023-02-04T01:24:57.133Z,4.11
2023-02-04T01:26:01.682Z,4.12
2023-02-04T01:27:03.709Z,4.14
2023-02-04T01:28:08.217Z,4.13
2023-02-04T01:29:10.581Z,4.15
2023-02-04T01:30:17.266Z,4.14
2023-02-04T01:31:19.433Z,4.17
2023-02-04T01:32:24.028Z,4.12
2023-02-04T01:33:28.583Z,4.12
2023-02-04T01:34:33.293Z,4.07
2023-02-04T01:35:35.282Z,4.08
2023-02-04T01:36:39.799Z,4.09
2023-02-04T01:37:41.716Z,4.09
2023-02-04T01:38:46.185Z,4.09
2023-02-04T01:39:48.125Z,4.09
2023-02-04T01:40:52.734Z,4.08
2023-02-04T01:41:54.890Z,4.03
2023-02-04T01:42:59.814Z,3.99
2023-02-04T01:44:01.957Z,3.96
2023-02-04T01:45:08.214Z,3.94
2023-02-04T01:46:10.476Z,3.91
2023-02-04T01:47:15.481Z,3.93
2023-02-04T01:48:20.602Z,3.90
2023-02-04T01:49:28.126Z,3.88
2023-02-04T01:50:30.981Z,3.89
2023-02-04T01:51:35.812Z,3.86
2023-02-04T01:52:40.027Z,3.85
2023-02-04T01:53:45.021Z,3.84
2023-02-04T01:54:47.440Z,3.83
2023-02-04T01:55:52.063Z,3.84
2023-02-04T01:56:55.609Z,3.84
2023-02-04T01:58:01.944Z,3.84
2023-02-04T01:59:12.471Z,3.85
2023-02-04T02:00:20.860Z,3.83
2023-02-04T02:01:37.837Z,3.83
2023-02-04T02:02:44.752Z,3.84
2023-02-04T02:03:49.275Z,3.77
2023-02-04T02:04:54.080Z,3.80
2023-02-04T02:05:58.915Z,3.79
2023-02-04T02:07:04.048Z,3.74
2023-02-04T02:08:10.644Z,3.77
2023-02-04T02:09:12.880Z,3.75
2023-02-04T02:10:18.712Z,3.73
2023-02-04T02:11:20.932Z,3.69
2023-02-04T02:12:25.750Z,3.68
2023-02-04T02:13:30.378Z,3.71
2023-02-04T02:14:32.683Z,3.69
2023-02-04T02:15:37.537Z,3.70
2023-02-04T02:16:39.648Z,3.70
2023-02-04T02:17:44.387Z,3.70
2023-02-04T02:18:46.490Z,3.73
2023-02-04T02:19:51.267Z,3.74
2023-02-04T02:20:57.930Z,3.78
2023-02-04T02:22:13.875Z,3.78
2023-02-04T02:23:23.648Z,3.75
2023-02-04T02:24:32.818Z,3.72
2023-02-04T02:25:34.927Z,3.75
2023-02-04T02:26:39.550Z,3.71
2023-02-04T02:27:41.934Z,3.69
2023-02-04T02:28:48.074Z,3.74
2023-02-04T02:29:50.930Z,3.69
2023-02-04T02:30:55.848Z,3.68
2023-02-04T02:31:59.083Z,3.65
2023-02-04T02:33:03.758Z,3.66
2023-02-04T02:34:05.864Z,3.63
2023-02-04T02:35:11.545Z,3.64
2023-02-04T02:36:14.776Z,3.67
2023-02-04T02:37:19.326Z,3.65
2023-02-04T02:38:21.389Z,3.65
2023-02-04T02:39:25.993Z,3.64
2023-02-04T02:40:33.382Z,3.65
2023-02-04T02:41:35.486Z,3.66
2023-02-04T02:42:40.598Z,3.67
2023-02-04T02:43:42.552Z,3.72
2023-02-04T02:44:48.318Z,3.73
2023-02-04T02:45:50.904Z,3.68
2023-02-04T02:46:56.682Z,3.71
2023-02-04T02:48:00.987Z,3.72
2023-02-04T02:49:05.509Z,3.76
2023-02-04T02:50:12.599Z,3.69
2023-02-04T02:51:17.188Z,3.72
2023-02-04T02:52:19.895Z,3.74
2023-02-04T02:53:24.967Z,3.79
2023-02-04T02:54:29.562Z,3.75
2023-02-04T02:55:36.719Z,3.75
2023-02-04T02:56:38.661Z,3.75
2023-02-04T02:57:43.185Z,3.82
2023-02-04T02:58:45.368Z,3.78
2023-02-04T02:59:50.597Z,3.76
2023-02-04T03:00:53.268Z,3.75
2023-02-04T03:02:02.051Z,3.71
2023-02-04T03:03:08.822Z,3.71
2023-02-04T03:04:14.667Z,3.71
2023-02-04T03:05:16.879Z,3.73
2023-02-04T03:06:26.243Z,3.73
2023-02-04T03:07:28.328Z,3.77
2023-02-04T03:08:32.957Z,3.84
2023-02-04T03:09:36.245Z,3.75
2023-02-04T03:10:44.277Z,3.81
2023-02-04T03:11:46.294Z,3.80
2023-02-04T03:12:51.120Z,3.81
2023-02-04T03:13:53.539Z,3.81
2023-02-04T03:14:58.195Z,3.87
2023-02-04T03:16:01.101Z,3.78
2023-02-04T03:17:07.279Z,3.74
2023-02-04T03:18:09.766Z,3.77
2023-02-04T03:19:15.269Z,3.74
2023-02-04T03:20:17.619Z,3.74
2023-02-04T03:21:22.144Z,3.70
2023-02-04T03:22:24.430Z,3.75
2023-02-04T03:23:29.381Z,3.78
2023-02-04T03:24:32.367Z,3.75
2023-02-04T03:25:37.170Z,3.76
2023-02-04T03:26:41.708Z,3.74
2023-02-04T03:27:46.818Z,3.77
2023-02-04T03:28:49.438Z,3.72
2023-02-04T03:29:55.200Z,3.74
2023-02-04T03:30:57.638Z,3.68
2023-02-04T03:32:03.278Z,3.67
2023-02-04T03:33:05.345Z,3.62
2023-02-04T03:34:10.204Z,3.60
2023-02-04T03:35:12.218Z,3.53
2023-02-04T03:36:16.730Z,3.55
2023-02-04T03:37:18.703Z,3.50
2023-02-04T03:38:23.620Z,3.46
2023-02-04T03:39:28.137Z,3.44
2023-02-04T03:40:30.530Z,3.44
2023-02-04T03:41:35.189Z,3.40
2023-02-04T03:42:39.751Z,3.38
2023-02-04T03:43:44.240Z,3.42
2023-02-04T03:44:46.157Z,3.44
2023-02-04T03:45:50.671Z,3.50
2023-02-04T03:46:55.400Z,3.44
2023-02-04T03:47:59.926Z,3.45
2023-02-04T03:49:01.817Z,3.42
2023-02-04T03:50:06.889Z,3.43
2023-02-04T03:51:08.812Z,3.41
2023-02-04T03:52:13.318Z,3.40
2023-02-04T03:53:15.285Z,3.43
2023-02-04T03:54:19.961Z,3.41
2023-02-04T03:55:21.855Z,3.34
2023-02-04T03:56:26.432Z,3.36
2023-02-04T03:57:28.378Z,3.31
2023-02-04T03:58:35.486Z,3.32
2023-02-04T03:59:37.471Z,3.28
2023-02-04T04:00:42.111Z,3.28
2023-02-04T04:01:44.049Z,3.28
2023-02-04T04:02:48.705Z,3.24
2023-02-04T04:03:50.635Z,3.24
2023-02-04T04:04:55.180Z,3.23
2023-02-04T04:05:57.048Z,3.20
2023-02-04T04:07:01.552Z,3.18
2023-02-04T04:08:03.592Z,3.17
2023-02-04T04:09:08.073Z,3.16
2023-02-04T04:10:10.501Z,3.15
2023-02-04T04:11:15.145Z,3.13
2023-02-04T04:12:17.026Z,3.09
2023-02-04T04:13:21.596Z,3.08
2023-02-04T04:14:26.334Z,3.06
2023-02-04T04:15:30.856Z,3.03
2023-02-04T04:16:32.749Z,3.01
2023-02-04T04:17:37.284Z,3.01
2023-02-04T04:18:39.201Z,3.02
2023-02-04T04:19:44.692Z,2.98
2023-02-04T04:20:46.863Z,3.01
2023-02-04T04:21:51.394Z,2.96
2023-02-04T04:22:53.285Z,2.91
2023-02-04T04:23:57.786Z,2.90
2023-02-04T04:24:59.752Z,2.82
2023-02-04T04:26:04.277Z,2.85
2023-02-04T04:27:06.209Z,2.84
2023-02-04T04:28:10.740Z,2.83
2023-02-04T04:29:12.731Z,2.74
2023-02-04T04:30:20.548Z,2.73
2023-02-04T04:31:22.660Z,2.72
2023-02-04T04:32:27.549Z,2.71
2023-02-04T04:33:29.591Z,2.68
2023-02-04T04:34:34.277Z,2.63
2023-02-04T04:35:36.257Z,2.63
2023-02-04T04:36:40.827Z,2.60
2023-02-04T04:37:42.725Z,2.58
2023-02-04T04:38:47.207Z,2.56
2023-02-04T04:39:49.112Z,2.54
2023-02-04T04:40:53.717Z,2.55
2023-02-04T04:41:55.725Z,2.55
2023-02-04T04:43:00.229Z,2.54
2023-02-04T04:44:02.399Z,2.50
2023-02-04T04:45:10.480Z,2.52
2023-02-04T04:46:15.035Z,2.49
2023-02-04T04:47:19.586Z,2.42
2023-02-04T04:48:21.864Z,2.41
2023-02-04T04:49:26.960Z,2.35
2023-02-04T04:50:28.958Z,2.35
2023-02-04T04:51:33.590Z,2.30
2023-02-04T04:52:35.534Z,2.25
2023-02-04T04:53:40.148Z,2.21
2023-02-04T04:54:42.104Z,2.19
2023-02-04T04:55:46.652Z,2.18
2023-02-04T04:56:48.558Z,2.15
2023-02-04T04:57:53.046Z,2.11
2023-02-04T04:58:54.963Z,2.08
2023-02-04T04:59:59.470Z,2.13
2023-02-04T05:01:01.435Z,2.09
2023-02-04T05:02:08.566Z,2.10
2023-02-04T05:03:10.494Z,2.16
2023-02-04T05:04:15.336Z,2.19
2023-02-04T05:05:17.408Z,2.17
2023-02-04T05:06:25.371Z,2.14
2023-02-04T05:07:27.772Z,2.13
2023-02-04T05:08:32.279Z,2.10
2023-02-04T05:09:34.181Z,2.08
2023-02-04T05:10:38.676Z,2.14
2023-02-04T05:11:40.691Z,2.11
2023-02-04T05:12:45.229Z,2.11
2023-02-04T05:13:47.494Z,2.13
2023-02-04T05:14:52.010Z,2.16
2023-02-04T05:15:53.943Z,2.15
2023-02-04T05:16:58.528Z,2.16
2023-02-04T05:18:03.174Z,2.18
2023-02-04T05:19:07.663Z,2.15
2023-02-04T05:20:10.758Z,2.14
2023-02-04T05:21:15.262Z,2.09
2023-02-04T05:22:17.196Z,2.13
2023-02-04T05:23:21.868Z,2.11
2023-02-04T05:24:23.851Z,2.08
2023-02-04T05:25:28.425Z,2.09
2023-02-04T05:26:31.388Z,2.11
2023-02-04T05:27:36.005Z,2.09
2023-02-04T05:28:37.915Z,2.06
2023-02-04T05:29:42.461Z,2.05
2023-02-04T05:30:44.418Z,1.97
2023-02-04T05:31:49.054Z,1.94
2023-02-04T05:32:51.041Z,1.91
2023-02-04T05:33:58.174Z,1.92
2023-02-04T05:35:00.083Z,1.88
2023-02-04T05:36:04.578Z,1.86
2023-02-04T05:37:06.516Z,1.86
2023-02-04T05:38:11.005Z,1.86
2023-02-04T05:39:12.904Z,1.86
2023-02-04T05:40:17.552Z,1.84
2023-02-04T05:41:19.483Z,1.81
2023-02-04T05:42:24.047Z,1.78
2023-02-04T05:43:26.011Z,1.75
2023-02-04T05:44:30.499Z,1.73
2023-02-04T05:45:32.500Z,1.79
2023-02-04T05:46:37.290Z,1.84
2023-02-04T05:47:39.232Z,1.79
2023-02-04T05:48:43.704Z,1.75
2023-02-04T05:49:48.241Z,1.83
2023-02-04T05:50:52.765Z,1.79
2023-02-04T05:51:54.717Z,1.79
2023-02-04T05:52:59.235Z,1.74
2023-02-04T05:54:01.132Z,1.76
2023-02-04T05:55:05.958Z,1.69
2023-02-04T05:56:08.121Z,1.71
2023-02-04T05:57:12.618Z,1.68
2023-02-04T05:58:14.653Z,1.65
2023-02-04T05:59:19.114Z,1.63
2023-02-04T06:00:21.830Z,1.60
2023-02-04T06:01:26.411Z,1.55
2023-02-04T06:02:28.373Z,1.53
2023-02-04T06:03:34.021Z,1.51
2023-02-04T06:04:36.049Z,1.46
2023-02-04T06:05:44.374Z,1.45
2023-02-04T06:06:46.284Z,1.33
2023-02-04T06:07:50.782Z,1.29
2023-02-04T06:08:52.710Z,1.31
2023-02-04T06:09:58.561Z,1.32
2023-02-04T06:11:01.403Z,1.29
2023-02-04T06:12:06.307Z,1.25
2023-02-04T06:13:08.261Z,1.16
2023-02-04T06:14:12.960Z,1.10
2023-02-04T06:15:15.687Z,1.06
2023-02-04T06:16:20.261Z,0.99
2023-02-04T06:17:22.295Z,0.94
2023-02-04T06:18:26.918Z,0.92
2023-02-04T06:19:28.989Z,0.89
2023-02-04T06:20:33.687Z,0.84
2023-02-04T06:21:38.402Z,0.79
2023-02-04T06:22:42.935Z,0.78
2023-02-04T06:23:45.189Z,0.76
2023-02-04T06:24:49.715Z,0.75
2023-02-04T06:25:55.297Z,0.72
2023-02-04T06:26:57.215Z,0.67
2023-02-04T06:28:01.737Z,0.64
2023-02-04T06:29:03.771Z,0.65
2023-02-04T06:30:09.208Z,0.63
2023-02-04T06:31:11.178Z,0.58
2023-02-04T06:32:15.754Z,0.55
2023-02-04T06:33:17.707Z,0.50
2023-02-04T06:34:22.193Z,0.46
2023-02-04T06:35:24.403Z,0.39
2023-02-04T06:36:28.968Z,0.36
2023-02-04T06:37:33.506Z,0.33
2023-02-04T06:38:38.031Z,0.28
2023-02-04T06:39:40.268Z,0.22
2023-02-04T06:40:44.928Z,0.18
2023-02-04T06:41:46.861Z,0.13
2023-02-04T06:42:51.337Z,0.08
2023-02-04T06:43:53.277Z,0.01
2023-02-04T06:44:57.799Z,-0.04
2023-02-04T06:46:02.340Z,-0.10
2023-02-04T06:47:04.291Z,-0.14
2023-02-04T06:48:08.964Z,-0.20
2023-02-04T06:49:10.967Z,-0.25
2023-02-04T06:50:18.868Z,-0.30
2023-02-04T06:51:20.862Z,-0.32
2023-02-04T06:52:25.580Z,-0.37
2023-02-04T06:53:32.755Z,-0.36
2023-02-04T06:54:34.831Z,-0.32
2023-02-04T06:55:39.579Z,-0.35
2023-02-04T06:56:43.671Z,-0.35
2023-02-04T06:57:48.251Z,-0.32
2023-02-04T06:58:50.151Z,-0.30
2023-02-04T06:59:55.019Z,-0.28
2023-02-04T07:00:56.949Z,-0.26
2023-02-04T07:02:01.452Z,-0.17
2023-02-04T07:03:03.483Z,-0.16
2023-02-04T07:04:08.088Z,-0.13
2023-02-04T07:05:10.085Z,-0.07
2023-02-04T07:06:14.563Z,-0.01
2023-02-04T07:07:16.566Z,0.03
2023-02-04T07:08:21.985Z,0.07
2023-02-04T07:09:29.324Z,0.11
2023-02-04T07:10:32.797Z,0.12
2023-02-04T07:11:37.590Z,0.14
2023-02-04T07:12:39.493Z,0.16
2023-02-04T07:13:44.065Z,0.19
2023-02-04T07:14:45.994Z,0.24
2023-02-04T07:15:51.230Z,0.32
2023-02-04T07:16:53.189Z,0.38
2023-02-04T07:17:57.677Z,0.45
2023-02-04T07:18:59.569Z,0.50
2023-02-04T07:20:04.110Z,0.52
2023-02-04T07:21:06.477Z,0.57
2023-02-04T07:22:10.950Z,0.63
2023-02-04T07:23:13.000Z,0.66
2023-02-04T07:24:17.513Z,0.70
2023-02-04T07:25:22.107Z,0.72
2023-02-04T07:26:26.709Z,0.82
2023-02-04T07:27:28.603Z,0.80
2023-02-04T07:28:33.205Z,0.81
2023-02-04T07:29:35.219Z,0.84
2023-02-04T07:30:39.798Z,0.93
2023-02-04T07:31:41.927Z,0.96
2023-02-04T07:32:46.474Z,1.00
2023-02-04T07:33:48.364Z,1.04
2023-02-04T07:34:52.941Z,1.03
2023-02-04T07:35:54.901Z,0.99
2023-02-04T07:36:59.433Z,1.08
2023-02-04T07:38:01.370Z,1.10
2023-02-04T07:39:06.094Z,1.15
2023-02-04T07:40:12.274Z,1.18
2023-02-04T07:41:16.883Z,1.22
2023-02-04T07:42:21.475Z,1.16
2023-02-04T07:43:23.505Z,1.11
2023-02-04T07:44:28.025Z,1.11
2023-02-04T07:45:29.929Z,1.18
2023-02-04T07:46:34.571Z,1.18
2023-02-04T07:47:36.519Z,1.18
2023-02-04T07:48:41.103Z,1.17
2023-02-04T07:49:45.602Z,1.17
2023-02-04T07:50:47.695Z,1.17
2023-02-04T07:51:52.174Z,1.17
2023-02-04T07:52:54.071Z,1.21
2023-02-04T07:53:59.018Z,1.23
2023-02-04T07:55:01.029Z,1.36
2023-02-04T07:56:05.702Z,1.38
2023-02-04T07:57:10.272Z,1.33
2023-02-04T07:58:14.760Z,1.35
2023-02-04T07:59:16.667Z,1.42
2023-02-04T08:00:21.708Z,1.48
2023-02-04T08:01:23.630Z,1.50
2023-02-04T08:02:28.382Z,1.59
2023-02-04T08:03:30.308Z,1.65
2023-02-04T08:04:34.827Z,1.67
2023-02-04T08:05:36.789Z,1.67
2023-02-04T08:06:41.302Z,1.64
2023-02-04T08:07:43.217Z,1.69
2023-02-04T08:08:47.761Z,1.62
2023-02-04T08:09:49.668Z,1.72
2023-02-04T08:10:54.328Z,1.71
2023-02-04T08:11:56.257Z,1.77
2023-02-04T08:13:03.556Z,1.76
2023-02-04T08:14:05.486Z,1.84
2023-02-04T08:15:10.960Z,1.81
2023-02-04T08:16:13.048Z,1.74
2023-02-04T08:17:17.607Z,1.75
2023-02-04T08:18:19.697Z,1.78
2023-02-04T08:19:24.171Z,1.87
2023-02-04T08:20:26.084Z,1.90
2023-02-04T08:21:30.654Z,1.91
2023-02-04T08:22:32.630Z,1.96
2023-02-04T08:23:41.695Z,1.92
2023-02-04T08:24:43.707Z,2.01
2023-02-04T08:25:48.268Z,1.99
2023-02-04T08:26:56.410Z,2.04
2023-02-04T08:28:03.667Z,2.11
2023-02-04T08:29:05.597Z,2.20
2023-02-04T08:30:11.351Z,2.22
2023-02-04T08:31:13.435Z,2.24
2023-02-04T08:32:18.036Z,2.22
2023-02-04T08:33:20.064Z,2.21
2023-02-04T08:34:24.775Z,2.20
2023-02-04T08:35:26.844Z,2.21
2023-02-04T08:36:31.414Z,2.26
2023-02-04T08:37:33.503Z,2.38
2023-02-04T08:38:38.130Z,2.33
2023-02-04T08:39:44.461Z,2.32
2023-02-04T08:40:49.016Z,2.28
2023-02-04T08:41:51.500Z,2.29
2023-02-04T08:42:56.072Z,2.32
2023-02-04T08:44:00.726Z,2.41
2023-02-04T08:45:05.432Z,2.48
2023-02-04T08:46:07.584Z,2.49
2023-02-04T08:47:12.619Z,2.54
2023-02-04T08:48:14.572Z,2.59
2023-02-04T08:49:19.118Z,2.53
2023-02-04T08:50:21.113Z,2.59
2023-02-04T08:51:25.870Z,2.67
2023-02-04T08:52:27.844Z,2.67
2023-02-04T08:53:32.408Z,2.79
2023-02-04T08:54:35.517Z,2.82
2023-02-04T08:55:40.109Z,2.82
2023-02-04T08:56:42.127Z,2.75
2023-02-04T08:57:46.646Z,2.90
2023-02-04T08:58:48.637Z,3.01
2023-02-04T08:59:55.751Z,3.13
2023-02-04T09:00:57.782Z,3.18
2023-02-04T09:02:03.237Z,3.19
2023-02-04T09:03:05.263Z,3.31
2023-02-04T09:04:09.760Z,3.40
2023-02-04T09:05:11.850Z,3.40
2023-02-04T09:06:16.518Z,3.36
2023-02-04T09:07:18.563Z,3.39
2023-02-04T09:08:23.148Z,3.38
2023-02-04T09:09:26.389Z,3.46
2023-02-04T09:10:31.409Z,3.49
2023-02-04T09:11:33.588Z,3.49
2023-02-04T09:12:38.136Z,3.42
2023-02-04T09:13:42.698Z,3.45
2023-02-04T09:14:44.668Z,3.47
2023-02-04T09:15:54.284Z,3.42
2023-02-04T09:16:58.957Z,3.40
2023-02-04T09:18:11.610Z,3.42
2023-02-04T09:19:16.400Z,3.41
2023-02-04T09:20:21.541Z,3.27
2023-02-04T09:21:23.479Z,3.27
2023-02-04T09:22:28.067Z,3.26
2023-02-04T09:23:32.940Z,3.27
2023-02-04T09:24:37.513Z,3.32
2023-02-04T09:25:39.742Z,3.31
2023-02-04T09:26:44.253Z,3.26
2023-02-04T09:27:46.243Z,3.29
2023-02-04T09:28:50.995Z,3.30
2023-02-04T09:29:52.944Z,3.29
2023-02-04T09:31:00.487Z,3.19
2023-02-04T09:32:02.528Z,3.21
2023-02-04T09:33:07.667Z,3.20
2023-02-04T09:34:12.163Z,3.19
2023-02-04T09:35:14.280Z,3.18
2023-02-04T09:36:18.921Z,3.16
2023-02-04T09:37:20.882Z,3.14
2023-02-04T09:38:25.408Z,3.06
2023-02-04T09:39:31.394Z,3.16
2023-02-04T09:40:36.139Z,3.16
2023-02-04T09:41:43.016Z,3.25
2023-02-04T09:42:47.054Z,3.26
2023-02-04T09:43:51.937Z,3.17
2023-02-04T09:44:54.104Z,3.15
2023-02-04T09:46:02.001Z,3.11
2023-02-04T09:47:04.049Z,3.09
2023-02-04T09:48:10.372Z,3.12
2023-02-04T09:49:12.391Z,3.18
2023-02-04T09:50:18.431Z,3.21
2023-02-04T09:51:26.435Z,3.11
2023-02-04T09:52:31.947Z,3.06
2023-02-04T09:53:35.930Z,2.99
2023-02-04T09:54:40.810Z,3.10
2023-02-04T09:55:45.506Z,3.18
2023-02-04T09:56:50.602Z,3.25
2023-02-04T09:57:52.544Z,3.27
2023-02-04T09:58:57.232Z,3.18
2023-02-04T09:59:59.457Z,3.31
2023-02-04T10:01:15.163Z,3.42
2023-02-04T10:02:25.344Z,3.40
2023-02-04T10:03:29.464Z,3.44
2023-02-04T10:04:34.190Z,3.44
2023-02-04T10:05:37.357Z,3.42
2023-02-04T10:06:42.760Z,3.39
2023-02-04T10:07:45.429Z,3.39
2023-02-04T10:08:51.780Z,3.42
2023-02-04T10:09:54.970Z,3.32
2023-02-04T10:10:59.819Z,3.37
2023-02-04T10:12:04.333Z,3.36
2023-02-04T10:13:08.530Z,3.24
2023-02-04T10:14:17.651Z,3.29
2023-02-04T10:15:22.111Z,3.31
2023-02-04T10:16:32.708Z,3.37
2023-02-04T10:17:36.833Z,3.31
2023-02-04T10:18:41.895Z,3.31
2023-02-04T10:19:43.890Z,3.38
2023-02-04T10:20:48.468Z,3.40
2023-02-04T10:21:53.178Z,3.40
2023-02-04T10:22:56.382Z,3.43
2023-02-04T10:24:03.529Z,3.45
2023-02-04T10:25:12.580Z,3.50
2023-02-04T10:26:18.044Z,3.50
2023-02-04T10:27:23.341Z,3.48
2023-02-04T10:28:33.607Z,3.51
2023-02-04T10:29:38.364Z,3.51
2023-02-04T10:30:42.345Z,3.47
2023-02-04T10:31:52.288Z,3.51
2023-02-04T10:32:57.506Z,3.45
2023-02-04T10:34:13.101Z,3.45
2023-02-04T10:35:19.694Z,3.35
2023-02-04T10:36:22.312Z,3.39
2023-02-04T10:37:26.810Z,3.42
2023-02-04T10:38:28.750Z,3.34
2023-02-04T10:39:33.347Z,3.40
2023-02-04T10:40:36.672Z,3.43
2023-02-04T10:41:41.551Z,3.39
2023-02-04T10:42:53.256Z,3.44
2023-02-04T10:44:06.027Z,3.50
2023-02-04T10:45:24.958Z,3.58
2023-02-04T10:46:30.508Z,3.65
2023-02-04T10:47:37.645Z,3.64
2023-02-04T10:48:41.203Z,3.61
2023-02-04T10:49:55.251Z,3.45
2023-02-04T10:51:00.995Z,3.56
2023-02-04T10:52:13.822Z,3.59
2023-02-04T10:53:34.229Z,3.50
2023-02-04T10:54:41.635Z,3.63
2023-02-04T10:55:44.149Z,3.81
2023-02-04T10:56:48.820Z,4.00
2023-02-04T10:57:52.829Z,4.23
2023-02-04T10:58:57.334Z,4.40
2023-02-04T11:00:01.731Z,4.60
2023-02-04T11:01:06.717Z,4.78
2023-02-04T11:02:35.486Z,4.94
2023-02-04T11:03:44.596Z,5.13
2023-02-04T11:04:48.589Z,5.27
2023-02-04T11:05:54.114Z,5.39
2023-02-04T11:06:56.055Z,5.38
2023-02-04T11:08:00.724Z,5.46
2023-02-04T11:09:04.314Z,5.45
2023-02-04T11:10:09.163Z,5.36
2023-02-04T11:11:19.401Z,5.43
2023-02-04T11:12:22.501Z,5.16
2023-02-04T11:13:28.974Z,5.49
2023-02-04T11:14:33.852Z,5.65
2023-02-04T11:15:42.135Z,5.81
2023-02-04T11:16:50.725Z,6.07
2023-02-04T11:18:03.477Z,6.31
2023-02-04T11:19:16.579Z,6.43
2023-02-04T11:20:31.989Z,6.76
2023-02-04T11:21:46.370Z,7.04
2023-02-04T11:22:53.808Z,7.16
2023-02-04T11:24:22.697Z,7.43
2023-02-04T11:25:35.003Z,7.60
2023-02-04T11:26:41.384Z,7.78
2023-02-04T11:27:43.887Z,7.74
2023-02-04T11:28:52.134Z,7.64
2023-02-04T11:30:08.806Z,8.01
2023-02-04T11:31:16.871Z,8.27
2023-02-04T11:32:35.249Z,8.50
2023-02-04T11:33:39.733Z,8.57
2023-02-04T11:34:53.061Z,8.52
2023-02-04T11:36:02.004Z,8.56
2023-02-04T11:37:15.494Z,8.52
2023-02-04T11:38:27.042Z,8.49
2023-02-04T11:39:35.621Z,8.42
2023-02-04T11:40:42.999Z,8.55
2023-02-04T11:41:46.044Z,8.62
2023-02-04T11:42:51.410Z,8.50
2023-02-04T11:43:54.405Z,8.37
2023-02-04T11:45:02.419Z,8.24
2023-02-04T11:46:13.924Z,7.99
2023-02-04T11:47:15.708Z,7.87
2023-02-04T11:48:22.677Z,7.88
2023-02-04T11:49:26.853Z,7.84
2023-02-04T11:50:38.553Z,7.63
2023-02-04T11:51:40.550Z,7.34
2023-02-04T11:52:45.952Z,7.31
2023-02-04T11:53:55.841Z,6.94
2023-02-04T11:55:00.888Z,7.02
2023-02-04T11:56:05.945Z,6.93
2023-02-04T11:57:11.601Z,6.96
2023-02-04T11:58:18.350Z,6.86
2023-02-04T11:59:21.597Z,6.65
2023-02-04T12:00:28.514Z,6.59
2023-02-04T12:01:31.985Z,6.56
2023-02-04T12:02:50.716Z,6.52
2023-02-04T12:04:00.616Z,6.42
2023-02-04T12:05:10.678Z,6.15
2023-02-04T12:06:26.668Z,6.29
2023-02-04T12:07:30.281Z,6.20
2023-02-04T12:08:36.832Z,6.08
2023-02-04T12:09:48.292Z,6.15
2023-02-04T12:11:01.493Z,6.06
2023-02-04T12:12:04.156Z,6.13
2023-02-04T12:13:19.239Z,6.23
2023-02-04T12:14:21.495Z,6.28
2023-02-04T12:15:27.564Z,6.34
2023-02-04T12:16:40.263Z,5.97
2023-02-04T12:17:48.388Z,6.14
2023-02-04T12:18:50.793Z,5.98
2023-02-04T12:19:55.308Z,6.03
2023-02-04T12:21:00.555Z,6.02
2023-02-04T12:23:26.008Z,5.86
2023-02-04T12:24:30.518Z,5.84
2023-02-04T12:25:32.958Z,5.79
2023-02-04T12:26:37.638Z,5.68
2023-02-04T12:27:39.605Z,5.75
2023-02-04T12:28:44.229Z,5.47
2023-02-04T12:29:46.726Z,5.64
2023-02-04T12:30:51.531Z,5.70
2023-02-04T12:31:53.634Z,5.82
2023-02-04T12:32:58.220Z,5.85
2023-02-04T12:34:00.691Z,5.86
2023-02-04T12:35:06.112Z,5.95
2023-02-04T12:36:11.617Z,6.07
2023-02-04T12:37:13.610Z,6.07
2023-02-04T12:38:20.408Z,6.07
2023-02-04T12:39:25.055Z,6.01
2023-02-04T12:40:29.680Z,6.13
2023-02-04T12:41:34.247Z,6.21
2023-02-04T12:42:38.793Z,6.38
2023-02-04T12:43:40.700Z,6.35
2023-02-04T12:44:45.386Z,6.39
2023-02-04T12:45:49.834Z,6.42
2023-02-04T12:46:55.261Z,6.41
2023-02-04T12:47:59.933Z,6.58
2023-02-04T12:49:04.500Z,6.60
2023-02-04T12:50:10.830Z,6.56
2023-02-04T12:51:15.367Z,6.70
2023-02-04T12:52:19.848Z,6.84
2023-02-04T12:53:24.375Z,6.95
2023-02-04T12:54:28.872Z,7.06
2023-02-04T12:55:33.603Z,7.21
2023-02-04T12:56:35.773Z,7.41
2023-02-04T12:57:40.333Z,7.56
2023-02-04T12:58:44.848Z,7.68
2023-02-04T12:59:47.614Z,7.87
2023-02-04T13:00:52.147Z,8.11
2023-02-04T13:01:56.919Z,8.33
2023-02-04T13:03:01.654Z,8.52
2023-02-04T13:04:03.680Z,8.41
2023-02-04T13:05:09.250Z,8.61
2023-02-04T13:06:11.190Z,8.82
2023-02-04T13:07:15.678Z,8.76
2023-02-04T13:08:20.130Z,9.09
2023-02-04T13:09:24.647Z,9.26
2023-02-04T13:10:29.284Z,9.50
2023-02-04T13:11:33.799Z,9.67
2023-02-04T13:12:35.989Z,9.79
2023-02-04T13:13:40.756Z,9.86
2023-02-04T13:14:43.561Z,9.69
2023-02-04T13:15:48.132Z,9.79
2023-02-04T13:16:50.009Z,9.91
2023-02-04T13:17:54.747Z,10.08
2023-02-04T13:18:59.094Z,10.42
2023-02-04T13:20:03.710Z,10.84
2023-02-04T13:21:05.926Z,11.19
2023-02-04T13:22:10.441Z,11.33
2023-02-04T13:23:12.380Z,11.05
2023-02-04T13:24:17.684Z,11.39
2023-02-04T13:25:22.230Z,11.50
2023-02-04T13:26:29.349Z,11.51
2023-02-04T13:27:31.987Z,11.24
2023-02-04T13:28:36.531Z,11.05
2023-02-04T13:29:38.485Z,10.55
2023-02-04T13:30:43.068Z,10.34
2023-02-04T13:31:47.956Z,10.05
2023-02-04T13:32:49.932Z,9.77
2023-02-04T13:33:54.506Z,9.54
2023-02-04T13:34:56.562Z,9.45
2023-02-04T13:36:01.117Z,9.32
2023-02-04T13:37:03.092Z,9.18
2023-02-04T13:38:07.620Z,8.94
2023-02-04T13:39:09.837Z,8.87
2023-02-04T13:40:15.061Z,8.66
2023-02-04T13:41:19.525Z,8.60
2023-02-04T13:42:26.702Z,8.45
2023-02-04T13:43:28.726Z,8.15
2023-02-04T13:44:33.320Z,8.04
2023-02-04T13:45:35.687Z,7.88
2023-02-04T13:46:40.344Z,7.79
2023-02-04T13:47:42.385Z,7.47
2023-02-04T13:48:46.970Z,7.31
2023-02-04T13:49:48.918Z,7.19
2023-02-04T13:50:53.498Z,7.06
2023-02-04T13:51:58.052Z,6.95
2023-02-04T13:53:00.089Z,6.82
2023-02-04T13:54:04.658Z,6.52
2023-02-04T13:55:07.018Z,6.37
2023-02-04T13:56:11.639Z,6.41
2023-02-04T13:57:13.606Z,6.46
2023-02-04T13:58:20.695Z,6.50
2023-02-04T13:59:22.608Z,6.48
2023-02-04T14:00:27.260Z,6.47
2023-02-04T14:01:29.800Z,6.43
2023-02-04T14:02:34.373Z,6.37
2023-02-04T14:03:36.951Z,6.22
2023-02-04T14:04:44.007Z,6.03
2023-02-04T14:05:48.570Z,5.96
2023-02-04T14:06:55.112Z,5.88
2023-02-04T14:07:59.982Z,5.92
2023-02-04T14:09:02.241Z,5.93
2023-02-04T14:10:07.725Z,5.93
2023-02-04T14:11:12.244Z,5.98
2023-02-04T14:12:16.946Z,5.89
2023-02-04T14:13:24.154Z,5.82
2023-02-04T14:14:26.189Z,5.71
2023-02-04T14:15:30.677Z,5.43
2023-02-04T14:16:32.671Z,5.52
2023-02-04T14:17:37.223Z,5.48
2023-02-04T14:18:39.164Z,5.32